createdAt,value
2022-11-12T00:00:53.856Z,46.05
2022-11-12T00:03:41.536Z,59.42
2022-11-12T00:06:27.934Z,39.00
2022-11-12T00:09:14.253Z,47.45
2022-11-12T00:12:00.764Z,27.98
2022-11-12T00:14:47.242Z,25.37
2022-11-12T00:17:33.648Z,28.30
2022-11-12T00:20:21.413Z,25.00
2022-11-12T00:23:07.819Z,27.00
2022-11-12T00:26:00.097Z,26.00
2022-11-12T00:28:46.748Z,35.37
2022-11-12T00:31:34.465Z,20.37
2022-11-12T00:34:21.008Z,25.25
2022-11-12T00:37:08.794Z,28.60
2022-11-12T00:39:55.047Z,25.87
2022-11-12T00:42:41.405Z,18.90
2022-11-12T00:45:27.982Z,25.60
2022-11-12T00:48:14.184Z,20.50
2022-11-12T00:51:02.209Z,20.83
2022-11-12T00:53:50.407Z,17.73
2022-11-12T00:56:37.012Z,20.60
2022-11-12T00:59:23.496Z,19.52
2022-11-12T01:02:10.310Z,19.15
2022-11-12T01:04:57.127Z,18.88
2022-11-12T01:07:43.754Z,23.53
2022-11-12T01:10:32.155Z,17.75
2022-11-12T01:13:18.861Z,15.93
2022-11-12T01:16:10.089Z,15.80
2022-11-12T01:18:59.081Z,18.60
2022-11-12T01:21:46.321Z,15.68
2022-11-12T01:24:32.978Z,26.85
2022-11-12T01:27:20.616Z,16.95
2022-11-12T01:30:08.065Z,15.75
2022-11-12T01:32:54.916Z,20.17
2022-11-12T01:35:41.560Z,15.33
2022-11-12T01:38:28.687Z,20.10
2022-11-12T01:41:18.229Z,24.85
2022-11-12T01:44:11.350Z,15.82
2022-11-12T01:47:03.181Z,14.50
2022-11-12T01:49:57.120Z,14.40
2022-11-12T01:52:47.866Z,14.45
2022-11-12T01:55:39.910Z,14.33
2022-11-12T01:58:29.967Z,19.63
2022-11-12T02:01:17.944Z,14.30
2022-11-12T02:04:04.953Z,20.08
2022-11-12T02:06:53.378Z,24.00
2022-11-12T02:09:39.991Z,19.50
2022-11-12T02:12:43.777Z,22.25
2022-11-12T02:15:30.577Z,19.05
2022-11-12T02:18:18.590Z,20.20
2022-11-12T02:21:08.518Z,28.17
2022-11-12T02:24:04.733Z,21.50
2022-11-12T02:26:54.564Z,14.63
2022-11-12T02:29:46.477Z,22.15
2022-11-12T02:32:33.270Z,19.88
2022-11-12T02:35:19.657Z,15.15
2022-11-12T02:38:06.891Z,13.98
2022-11-12T02:40:54.684Z,15.00
2022-11-12T02:43:41.502Z,21.40
2022-11-12T02:46:28.116Z,25.70
2022-11-12T02:49:14.706Z,16.00
2022-11-12T02:52:01.154Z,25.98
2022-11-12T02:54:47.440Z,27.13
2022-11-12T02:57:35.149Z,27.20
2022-11-12T03:00:21.576Z,24.67
2022-11-12T03:03:07.962Z,27.38
2022-11-12T03:05:59.769Z,22.03
2022-11-12T03:08:46.848Z,14.88
2022-11-12T03:11:33.364Z,23.00
2022-11-12T03:14:20.956Z,24.80
2022-11-12T03:17:07.533Z,14.88
2022-11-12T03:19:53.935Z,14.73
2022-11-12T03:22:40.587Z,24.85
2022-11-12T03:25:27.884Z,21.45
2022-11-12T03:28:15.799Z,29.85
2022-11-12T03:31:03.708Z,27.15
2022-11-12T03:33:50.132Z,15.40
2022-11-12T03:36:36.435Z,22.15
2022-11-12T03:39:22.711Z,21.30
2022-11-12T03:42:09.372Z,21.90
2022-11-12T03:44:56.084Z,29.67
2022-11-12T03:47:46.045Z,20.90
2022-11-12T03:50:32.662Z,21.27
2022-11-12T03:53:19.300Z,32.05
2022-11-12T03:56:06.318Z,18.33
2022-11-12T03:58:52.970Z,19.13
2022-11-12T04:01:39.537Z,24.25
2022-11-12T04:04:48.038Z,23.73
2022-11-12T04:07:51.973Z,18.90
2022-11-12T04:10:39.060Z,25.52
2022-11-12T04:13:31.395Z,24.40
2022-11-12T04:16:46.359Z,31.33
2022-11-12T04:19:51.943Z,19.67
2022-11-12T04:22:38.639Z,18.38
2022-11-12T04:25:44.804Z,17.75
2022-11-12T04:28:31.452Z,16.20
2022-11-12T04:31:16.909Z,73.55
2022-11-12T04:34:17.437Z,27.15
2022-11-12T04:37:06.818Z,25.10
2022-11-12T04:39:53.445Z,17.23
2022-11-12T04:42:59.520Z,33.08
2022-11-12T04:45:49.583Z,33.25
2022-11-12T04:48:35.922Z,23.17
2022-11-12T04:51:39.879Z,18.90
2022-11-12T04:54:27.850Z,34.20
2022-11-12T04:57:14.077Z,26.85
2022-11-12T05:00:00.450Z,24.05
2022-11-12T05:02:46.931Z,16.60
2022-11-12T05:05:34.313Z,18.67
2022-11-12T05:08:21.061Z,34.00
2022-11-12T05:11:12.626Z,21.17
2022-11-12T05:13:59.402Z,18.90
2022-11-12T05:16:46.186Z,20.20
2022-11-12T05:19:34.585Z,25.58
2022-11-12T05:22:42.106Z,21.88
2022-11-12T05:25:28.105Z,18.42
2022-11-12T05:28:15.954Z,18.40
2022-11-12T05:31:02.930Z,19.98
2022-11-12T05:33:49.501Z,19.85
2022-11-12T05:36:36.270Z,21.02
2022-11-12T05:39:22.770Z,22.73
2022-11-12T05:42:14.083Z,25.65
2022-11-12T05:45:02.254Z,16.77
2022-11-12T05:47:49.135Z,18.00
2022-11-12T05:50:51.233Z,17.25
2022-11-12T05:53:42.627Z,19.05
2022-11-12T05:56:29.365Z,24.65
2022-11-12T05:59:16.259Z,26.83
2022-11-12T06:02:03.933Z,34.58
2022-11-12T06:04:50.237Z,18.33
2022-11-12T06:07:36.712Z,19.85
2022-11-12T06:10:23.143Z,21.55
2022-11-12T06:13:09.575Z,20.48
2022-11-12T06:15:56.650Z,17.33
2022-11-12T06:18:44.261Z,26.65
2022-11-12T06:21:30.517Z,24.92
2022-11-12T06:24:17.009Z,29.83
2022-11-12T06:27:03.415Z,26.40
2022-11-12T06:29:49.768Z,42.40
2022-11-12T06:32:36.801Z,24.38
2022-11-12T06:35:24.436Z,17.30
2022-11-12T06:38:10.666Z,16.23
2022-11-12T06:40:57.047Z,26.15
2022-11-12T06:43:43.588Z,20.33
2022-11-12T06:46:30.077Z,26.58
2022-11-12T06:49:16.371Z,23.40
2022-11-12T06:52:04.565Z,20.40
2022-11-12T06:54:51.032Z,26.98
2022-11-12T06:57:37.241Z,23.75
2022-11-12T07:00:23.572Z,23.65
2022-11-12T07:03:10.868Z,22.52
2022-11-12T07:05:57.669Z,23.70
2022-11-12T07:08:45.390Z,21.42
2022-11-12T07:11:31.909Z,22.70
2022-11-12T07:14:18.324Z,23.05
2022-11-12T07:17:04.765Z,24.50
2022-11-12T07:19:50.982Z,29.13
2022-11-12T07:22:37.541Z,22.85
2022-11-12T07:25:25.184Z,25.52
2022-11-12T07:28:11.431Z,21.30
2022-11-12T07:30:59.368Z,21.38
2022-11-12T07:33:48.783Z,32.20
2022-11-12T07:36:35.035Z,31.45
2022-11-12T07:39:21.677Z,38.30
2022-11-12T07:42:09.508Z,26.73
2022-11-12T07:44:56.066Z,27.70
2022-11-12T07:47:42.552Z,20.83
2022-11-12T07:50:28.952Z,25.40
2022-11-12T07:53:15.338Z,24.40
2022-11-12T07:56:04.551Z,34.83
2022-11-12T07:58:53.349Z,31.15
2022-11-12T08:01:41.339Z,35.10
2022-11-12T08:04:27.767Z,30.10
2022-11-12T08:07:14.290Z,29.73
2022-11-12T08:10:01.250Z,29.85
2022-11-12T08:12:47.669Z,27.23
2022-11-12T08:15:35.780Z,28.40
2022-11-12T08:18:22.497Z,21.15
2022-11-12T08:21:12.285Z,23.55
2022-11-12T08:23:58.530Z,22.42
2022-11-12T08:26:46.906Z,22.55
2022-11-12T08:29:38.312Z,24.10
2022-11-12T08:32:26.260Z,23.50
2022-11-12T08:35:12.837Z,24.33
2022-11-12T08:37:59.863Z,18.27
2022-11-12T08:40:46.269Z,19.45
2022-11-12T08:43:32.878Z,22.35
2022-11-12T08:46:19.272Z,23.10
2022-11-12T08:49:07.134Z,20.80
2022-11-12T08:51:53.721Z,26.77
2022-11-12T08:54:40.022Z,23.02
2022-11-12T08:57:26.372Z,25.92
2022-11-12T09:00:14.540Z,34.75
2022-11-12T09:03:01.320Z,27.65
2022-11-12T09:05:49.953Z,19.43
2022-11-12T09:08:37.965Z,22.63
2022-11-12T09:11:24.582Z,19.58
2022-11-12T09:14:11.024Z,20.20
2022-11-12T09:16:57.605Z,19.50
2022-11-12T09:19:44.261Z,23.30
2022-11-12T09:22:33.385Z,23.80
2022-11-12T09:25:20.612Z,22.80
2022-11-12T09:28:09.111Z,19.90
2022-11-12T09:30:56.400Z,19.25
2022-11-12T09:33:42.950Z,19.27
2022-11-12T09:36:32.763Z,17.00
2022-11-12T09:39:24.104Z,18.07
2022-11-12T09:42:16.308Z,20.55
2022-11-12T09:45:06.958Z,22.75
2022-11-12T09:47:57.674Z,20.45
2022-11-12T09:50:53.428Z,22.88
2022-11-12T09:53:48.525Z,18.27
2022-11-12T09:56:36.320Z,23.40
2022-11-12T09:59:24.814Z,24.60
2022-11-12T10:02:26.744Z,19.63
2022-11-12T10:05:23.233Z,20.52
2022-11-12T10:08:36.288Z,20.48
2022-11-12T10:12:04.213Z,21.77
2022-11-12T10:15:32.180Z,22.70
2022-11-12T10:18:30.172Z,18.83
2022-11-12T10:21:24.391Z,21.40
2022-11-12T10:24:12.506Z,33.60
2022-11-12T10:27:01.084Z,26.07
2022-11-12T10:29:54.617Z,24.60
2022-11-12T10:32:44.777Z,37.47
2022-11-12T10:35:31.142Z,25.17
2022-11-12T10:38:26.159Z,32.63
2022-11-12T10:41:25.431Z,26.47
2022-11-12T10:44:15.823Z,23.20
2022-11-12T10:47:26.376Z,30.13
2022-11-12T10:50:21.315Z,23.33
2022-11-12T10:53:11.329Z,19.90
2022-11-12T10:55:59.635Z,23.23
2022-11-12T10:58:46.210Z,20.90
2022-11-12T11:01:35.979Z,21.73
2022-11-12T11:04:32.384Z,22.83
2022-11-12T11:07:24.510Z,25.17
2022-11-12T11:10:25.475Z,45.60
2022-11-12T11:13:22.502Z,33.03
2022-11-12T11:16:13.680Z,23.97
2022-11-12T11:19:04.129Z,21.90
2022-11-12T11:22:15.864Z,26.30
2022-11-12T11:25:19.039Z,30.00
2022-11-12T11:28:19.008Z,30.90
2022-11-12T11:31:17.114Z,28.23
2022-11-12T11:34:16.491Z,23.97
2022-11-12T11:37:17.882Z,24.27
2022-11-12T11:40:15.512Z,23.93
2022-11-12T11:43:16.691Z,25.77
2022-11-12T11:46:13.144Z,24.63
2022-11-12T11:49:19.636Z,26.13
2022-11-12T11:52:31.264Z,25.43
2022-11-12T11:55:33.192Z,21.80
2022-11-12T11:58:41.140Z,23.30
2022-11-12T12:01:33.285Z,26.43
2022-11-12T12:04:43.588Z,27.60
2022-11-12T12:07:38.575Z,26.37
2022-11-12T12:10:53.334Z,29.57
2022-11-12T12:13:51.070Z,26.87
2022-11-12T12:16:51.762Z,27.27
2022-11-12T12:19:58.663Z,31.10
2022-11-12T12:22:50.486Z,27.13
2022-11-12T12:25:39.936Z,27.30
2022-11-12T12:28:35.627Z,28.23
2022-11-12T12:31:27.044Z,31.93
2022-11-12T12:34:22.147Z,30.20
2022-11-12T12:37:18.192Z,29.60
2022-11-12T12:40:15.365Z,27.33
2022-11-12T12:43:08.699Z,39.80
2022-11-12T12:45:58.440Z,42.85
2022-11-12T12:48:46.892Z,31.57
2022-11-12T12:51:35.181Z,30.40
2022-11-12T12:54:58.407Z,28.83
2022-11-12T12:57:46.197Z,35.33
2022-11-12T13:00:39.363Z,38.67
2022-11-12T13:03:58.274Z,39.80
2022-11-12T13:06:54.869Z,33.93
2022-11-12T13:09:41.724Z,34.97
2022-11-12T13:13:01.388Z,35.03
2022-11-12T13:15:50.779Z,31.00
2022-11-12T13:19:00.166Z,36.80
2022-11-12T13:21:46.556Z,38.77
2022-11-12T13:25:04.902Z,33.53
2022-11-12T13:28:21.773Z,34.05
2022-11-12T13:31:27.022Z,35.60
2022-11-12T13:34:15.035Z,34.40
2022-11-12T13:37:05.050Z,33.93
2022-11-12T13:39:52.003Z,40.53
2022-11-12T13:42:51.011Z,36.67
2022-11-12T13:45:45.904Z,40.63
2022-11-12T13:48:39.922Z,39.70
2022-11-12T13:51:40.364Z,57.25
2022-11-12T13:54:35.750Z,52.35
2022-11-12T13:57:29.376Z,62.97
2022-11-12T14:00:25.711Z,44.60
2022-11-12T14:03:19.590Z,45.77
2022-11-12T14:06:16.758Z,43.50
2022-11-12T14:09:29.423Z,56.67
2022-11-12T14:12:45.214Z,51.77
2022-11-12T14:15:46.596Z,53.80
2022-11-12T14:18:41.565Z,65.70
2022-11-12T14:21:30.341Z,49.47
2022-11-12T14:24:17.153Z,42.63
2022-11-12T14:27:03.837Z,47.53
2022-11-12T14:29:50.339Z,45.30
2022-11-12T14:32:37.664Z,43.60
2022-11-12T14:35:30.994Z,46.07
2022-11-12T14:38:21.622Z,45.00
2022-11-12T14:41:11.486Z,42.90
2022-11-12T14:44:12.643Z,53.73
2022-11-12T14:47:01.359Z,58.60
2022-11-12T14:49:50.466Z,49.27
2022-11-12T14:52:41.767Z,45.83
2022-11-12T14:55:33.141Z,52.63
2022-11-12T14:58:22.131Z,60.63
2022-11-12T15:02:03.881Z,62.53
2022-11-12T15:04:37.865Z,64.70
2022-11-12T15:07:27.675Z,81.17
2022-11-12T15:10:33.714Z,79.20
2022-11-12T15:13:22.723Z,50.30
2022-11-12T15:16:12.417Z,52.83
2022-11-12T15:19:23.487Z,56.10
2022-11-12T15:22:21.916Z,53.87
2022-11-12T15:25:22.775Z,68.57
2022-11-12T15:28:23.562Z,64.80
2022-11-12T15:31:18.970Z,58.23
2022-11-12T15:34:28.796Z,68.47
2022-11-12T15:37:25.479Z,87.23
2022-11-12T15:40:18.646Z,112.33
2022-11-12T15:43:14.504Z,105.57
2022-11-12T15:46:03.079Z,79.17
2022-11-12T15:48:55.625Z,76.73
2022-11-12T15:51:42.531Z,74.23
2022-11-12T15:54:28.868Z,73.90
2022-11-12T15:57:17.356Z,73.40
2022-11-12T16:00:08.605Z,77.73
2022-11-12T16:02:59.601Z,71.70
2022-11-12T16:05:46.872Z,72.63
2022-11-12T16:08:33.128Z,71.83
2022-11-12T16:11:37.817Z,81.23
2022-11-12T16:14:25.187Z,89.53
2022-11-12T16:17:15.135Z,90.30
2022-11-12T16:20:03.826Z,73.13
2022-11-12T16:22:52.246Z,114.07
2022-11-12T16:25:39.481Z,101.03
2022-11-12T16:28:26.271Z,82.47
2022-11-12T16:31:12.726Z,73.97
2022-11-12T16:33:59.093Z,72.77
2022-11-12T16:36:48.626Z,76.80
2022-11-12T16:39:35.511Z,98.37
2022-11-12T16:42:21.842Z,167.57
2022-11-12T16:45:09.197Z,250.87
2022-11-12T16:47:57.060Z,227.67
2022-11-12T16:50:43.624Z,218.00
2022-11-12T16:53:31.485Z,145.17
2022-11-12T16:56:20.149Z,81.90
2022-11-12T16:59:06.866Z,135.77
2022-11-12T17:01:53.239Z,69.33
2022-11-12T17:04:39.675Z,140.33
2022-11-12T17:07:26.130Z,155.30
2022-11-12T17:10:14.258Z,163.70
2022-11-12T17:13:00.834Z,102.60
2022-11-12T17:15:47.348Z,200.73
2022-11-12T17:18:33.634Z,133.80
2022-11-12T17:21:20.445Z,128.93
2022-11-12T17:24:08.737Z,169.23
2022-11-12T17:26:57.473Z,143.60
2022-11-12T17:29:44.225Z,210.77
2022-11-12T17:32:30.733Z,117.70
2022-11-12T17:35:17.365Z,90.37
2022-11-12T17:38:03.756Z,217.13
2022-11-12T17:40:55.442Z,76.60
2022-11-12T17:43:43.598Z,84.77
2022-11-12T17:46:30.832Z,162.50
2022-11-12T17:49:17.536Z,164.93
2022-11-12T17:52:04.159Z,95.60
2022-11-12T17:54:51.907Z,154.97
2022-11-12T17:57:38.573Z,173.23
2022-11-12T18:00:26.423Z,232.20
2022-11-12T18:03:12.684Z,163.87
2022-11-12T18:06:00.318Z,60.47
2022-11-12T18:08:46.860Z,133.23
2022-11-12T18:11:42.697Z,102.50
2022-11-12T18:14:29.018Z,142.47
2022-11-12T18:17:17.392Z,129.63
2022-11-12T18:20:04.314Z,109.97
2022-11-12T18:22:51.159Z,87.87
2022-11-12T18:25:38.259Z,60.43
2022-11-12T18:28:25.199Z,58.37
2022-11-12T18:31:13.524Z,107.43
2022-11-12T18:34:01.388Z,171.27
2022-11-12T18:36:48.077Z,123.50
2022-11-12T18:39:34.824Z,112.73
2022-11-12T18:42:21.216Z,190.63
2022-11-12T18:45:09.326Z,150.77
2022-11-12T18:47:56.055Z,210.00
2022-11-12T18:50:44.170Z,86.73
2022-11-12T18:53:31.805Z,104.77
2022-11-12T18:56:20.206Z,130.63
2022-11-12T18:59:07.030Z,147.27
2022-11-12T19:01:53.673Z,90.90
2022-11-12T19:04:45.149Z,102.77
2022-11-12T19:07:33.898Z,63.33
2022-11-12T19:10:20.577Z,95.47
2022-11-12T19:13:07.461Z,158.70
2022-11-12T19:15:53.976Z,132.77
2022-11-12T19:18:42.185Z,106.80
2022-11-12T19:21:29.029Z,125.97
2022-11-12T19:24:17.092Z,109.53
2022-11-12T19:27:03.508Z,77.37
2022-11-12T19:29:50.327Z,119.73
2022-11-12T19:32:37.213Z,111.40
2022-11-12T19:35:24.030Z,133.67
2022-11-12T19:38:10.553Z,103.43
2022-11-12T19:41:04.224Z,115.17
2022-11-12T19:43:50.585Z,152.07
2022-11-12T19:46:37.701Z,102.60
2022-11-12T19:49:24.252Z,125.73
2022-11-12T19:52:10.668Z,175.13
2022-11-12T19:54:57.101Z,121.73
2022-11-12T19:57:46.267Z,149.73
2022-11-12T20:00:32.602Z,83.97
2022-11-12T20:03:21.267Z,170.80
2022-11-12T20:06:09.853Z,88.10
2022-11-12T20:08:59.730Z,85.90
2022-11-12T20:11:46.404Z,128.87
2022-11-12T20:14:34.206Z,60.57
2022-11-12T20:17:20.565Z,97.60
2022-11-12T20:20:09.296Z,66.50
2022-11-12T20:22:55.541Z,50.53
2022-11-12T20:25:42.177Z,82.37
2022-11-12T20:28:28.446Z,49.23
2022-11-12T20:31:19.902Z,64.93
2022-11-12T20:34:06.496Z,68.90
2022-11-12T20:36:53.008Z,143.07
2022-11-12T20:39:39.417Z,93.33
2022-11-12T20:42:25.896Z,101.00
2022-11-12T20:45:12.654Z,54.53
2022-11-12T20:48:00.710Z,55.57
2022-11-12T20:51:09.404Z,48.87
2022-11-12T20:53:59.429Z,103.63
2022-11-12T20:56:49.091Z,130.67
2022-11-12T20:59:40.944Z,113.57
2022-11-12T21:02:27.684Z,142.90
2022-11-12T21:05:15.529Z,81.30
2022-11-12T21:08:02.197Z,56.07
2022-11-12T21:10:49.696Z,128.53
2022-11-12T21:13:37.446Z,70.50
2022-11-12T21:16:24.011Z,67.32
2022-11-12T21:19:10.342Z,102.43
2022-11-12T21:21:58.146Z,52.65
2022-11-12T21:24:44.877Z,52.67
2022-11-12T21:27:31.366Z,69.50
2022-11-12T21:30:17.850Z,53.20
2022-11-12T21:33:04.392Z,74.35
2022-11-12T21:35:53.268Z,62.25
2022-11-12T21:38:41.468Z,113.53
2022-11-12T21:41:31.082Z,102.60
2022-11-12T21:44:17.671Z,71.93
2022-11-12T21:47:04.080Z,56.73
2022-11-12T21:49:50.741Z,78.37
2022-11-12T21:52:37.334Z,92.17
2022-11-12T21:55:25.000Z,79.17
2022-11-12T21:58:11.301Z,75.03
2022-11-12T22:01:06.191Z,62.57
2022-11-12T22:03:55.280Z,61.03
2022-11-12T22:06:42.198Z,81.57
2022-11-12T22:09:28.872Z,101.93
2022-11-12T22:12:16.819Z,81.00
2022-11-12T22:15:03.651Z,110.57
2022-11-12T22:17:50.098Z,39.43
2022-11-12T22:20:36.588Z,110.27
2022-11-12T22:23:23.428Z,108.23
2022-11-12T22:26:12.831Z,47.03
2022-11-12T22:29:00.575Z,80.93
2022-11-12T22:31:46.872Z,77.65
2022-11-12T22:34:33.398Z,75.63
2022-11-12T22:37:19.772Z,53.73
2022-11-12T22:40:13.022Z,87.83
2022-11-12T22:42:59.974Z,89.85
2022-11-12T22:45:47.742Z,120.88
2022-11-12T22:48:34.578Z,82.25
2022-11-12T22:51:23.506Z,52.13
2022-11-12T22:54:13.249Z,84.15
2022-11-12T22:56:59.762Z,71.13
2022-11-12T22:59:46.156Z,58.90
2022-11-12T23:02:36.392Z,77.05
2022-11-12T23:05:22.767Z,52.50
2022-11-12T23:08:09.902Z,57.27
2022-11-12T23:10:56.673Z,42.77
2022-11-12T23:13:43.672Z,27.73
2022-11-12T23:16:31.408Z,27.13
2022-11-12T23:19:19.289Z,34.23
2022-11-12T23:22:08.019Z,62.80
2022-11-12T23:24:54.968Z,30.37
2022-11-12T23:27:41.351Z,37.95
2022-11-12T23:30:27.960Z,42.45
2022-11-12T23:33:14.257Z,34.20
2022-11-12T23:36:10.570Z,31.83
2022-11-12T23:38:57.240Z,26.80
2022-11-12T23:41:43.847Z,27.80
2022-11-12T23:44:30.224Z,32.88
2022-11-12T23:47:16.908Z,25.57
2022-11-12T23:50:03.283Z,21.00
2022-11-12T23:52:50.926Z,22.23
2022-11-12T23:55:38.646Z,28.15
2022-11-12T23:58:25.969Z,46.03
